Time;durP1;ratioP1;P1;durP2;ratioP2;P2;SDS_P1;SDS_P2;PMS_P1;PMS_P2;Temp;Humidity;BMP_temperature;BMP_pressure;BME280_temperature;BME280_humidity;BME280_pressure;Samples;Min_cycle;Max_cycle;Signal;HPM_P1;HPM_P2
2020/12/26 00:03:52;;;;;;;5.43;4.27;;;;;;;0.93;100.00;100280.38;3345799;88;25746;-79
2020/12/26 00:08:53;;;;;;;5.77;4.57;;;;;;;0.87;100.00;100284.34;3343039;88;25728;-79
2020/12/26 00:13:54;;;;;;;8.17;7.27;;;;;;;0.84;100.00;100294.86;3342727;88;26049;-79
2020/12/26 00:18:55;;;;;;;8.07;5.37;;;;;;;0.97;100.00;100285.19;3342640;88;25990;-79
2020/12/26 00:23:56;;;;;;;6.77;5.40;;;;;;;1.23;100.00;100287.75;3342666;88;33265;-79
2020/12/26 00:28:57;;;;;;;7.27;6.23;;;;;;;0.88;100.00;100275.59;3342650;88;33225;-79
2020/12/26 00:33:58;;;;;;;7.30;6.13;;;;;;;0.95;100.00;100272.08;3342863;88;33258;-78
2020/12/26 00:38:58;;;;;;;6.53;5.27;;;;;;;1.13;100.00;100279.03;3342621;88;25879;-79
2020/12/26 00:43:59;;;;;;;5.90;4.67;;;;;;;1.18;100.00;100286.89;3342655;88;25874;-78
2020/12/26 00:49:00;;;;;;;7.53;5.20;;;;;;;1.08;100.00;100285.60;3342668;88;25819;-72
2020/12/26 00:54:01;;;;;;;6.50;5.00;;;;;;;1.08;100.00;100278.17;3342254;88;25780;-71
2020/12/26 00:59:02;;;;;;;4.50;3.12;;;;;;;1.09;100.00;100285.18;3342503;88;26320;-78
2020/12/26 01:04:03;;;;;;;3.57;2.80;;;;;;;1.05;100.00;100298.75;3342561;88;25786;-78
2020/12/26 01:09:04;;;;;;;3.23;2.93;;;;;;;0.04;100.00;100308.81;3343330;88;25801;-78
2020/12/26 01:14:05;;;;;;;2.77;2.58;;;;;;;0.05;100.00;100300.98;3343631;88;31061;-79
2020/12/26 01:19:06;;;;;;;2.10;1.90;;;;;;;0.06;100.00;100307.98;3343657;88;31026;-79
2020/12/26 01:24:07;;;;;;;3.53;1.63;;;;;;;-0.09;100.00;100313.19;3343484;88;31033;-79
2020/12/26 01:29:08;;;;;;;1.90;1.73;;;;;;;0.06;100.00;100309.70;3343674;88;31293;-76
2020/12/26 01:34:09;;;;;;;2.57;2.27;;;;;;;-0.04;100.00;100303.58;3343476;88;25863;-71
2020/12/26 01:39:10;;;;;;;2.17;1.97;;;;;;;-0.13;100.00;100315.34;3343309;88;25815;-71
2020/12/26 01:44:11;;;;;;;2.58;1.90;;;;;;;-0.25;100.00;100315.75;3343547;88;25813;-72
2020/12/26 01:49:12;;;;;;;2.20;1.77;;;;;;;-0.37;100.00;100314.41;3343458;88;26302;-71
2020/12/26 01:54:14;;;;;;;1.57;1.23;;;;;;;-0.45;100.00;100320.05;3343274;88;26274;-71
2020/12/26 01:59:15;;;;;;;1.37;1.03;;;;;;;-0.43;100.00;100310.47;3343326;88;25811;-72
2020/12/26 02:04:16;;;;;;;2.90;2.00;;;;;;;-0.63;100.00;100310.38;3327660;87;26138;-71
2020/12/26 02:09:17;;;;;;;1.63;1.40;;;;;;;-0.64;100.00;100309.52;3317528;88;35113;-79
2020/12/26 02:14:18;;;;;;;2.07;1.70;;;;;;;-0.67;100.00;100310.80;3320087;88;34977;-79
2020/12/26 02:19:23;;;;;;;2.03;1.83;;;;;;;-0.74;100.00;100318.17;3309969;87;82186;-78
2020/12/26 02:24:24;;;;;;;3.02;2.10;;;;;;;-0.69;100.00;100323.89;3286128;90;25904;-78
2020/12/26 02:29:24;;;;;;;3.83;2.23;;;;;;;-0.71;100.00;100334.77;3286897;90;25934;-77
2020/12/26 02:34:26;;;;;;;2.43;2.23;;;;;;;-0.74;100.00;100335.19;3287876;90;26537;-77
2020/12/26 02:39:26;;;;;;;2.20;2.00;;;;;;;-0.63;100.00;100333.48;3289125;89;25798;-78
2020/12/26 02:44:27;;;;;;;3.07;2.30;;;;;;;-0.70;100.00;100335.63;3292544;89;34902;-78
2020/12/26 02:49:28;;;;;;;3.17;2.40;;;;;;;-0.63;100.00;100336.11;3290759;90;35064;-79
2020/12/26 02:54:29;;;;;;;3.37;2.87;;;;;;;-0.63;100.00;100332.63;3289353;90;34945;-78
2020/12/26 02:59:30;;;;;;;4.50;2.73;;;;;;;-0.72;100.00;100321.23;3292170;89;34854;-78
2020/12/26 03:04:31;;;;;;;3.60;2.95;;;;;;;-0.66;100.00;100334.80;3286991;90;35087;-79
2020/12/26 03:09:32;;;;;;;4.50;3.80;;;;;;;-0.64;100.00;100335.70;3274302;88;26316;-79
2020/12/26 03:14:33;;;;;;;3.00;2.70;;;;;;;-0.46;100.00;100339.25;3268171;89;25848;-78
2020/12/26 03:19:33;;;;;;;4.07;2.70;;;;;;;-0.52;100.00;100336.16;3268763;89;26010;-78
2020/12/26 03:24:34;;;;;;;4.57;3.33;;;;;;;-0.52;100.00;100344.91;3256644;88;25917;-78
2020/12/26 03:29:35;;;;;;;4.63;2.80;;;;;;;-0.50;100.00;100348.83;3293204;87;25944;-78
2020/12/26 03:34:36;;;;;;;4.13;3.27;;;;;;;-0.51;100.00;100345.36;3317768;89;25868;-79
2020/12/26 03:39:37;;;;;;;3.73;3.00;;;;;;;-0.51;100.00;100345.77;3315169;89;25750;-78
2020/12/26 03:44:40;;;;;;;4.03;3.12;;;;;;;-0.52;100.00;100358.00;3283385;84;25988;-77
2020/12/26 03:49:41;;;;;;;4.73;3.50;;;;;;;-0.56;100.00;100354.91;3272656;89;26264;-76
2020/12/26 03:54:42;;;;;;;3.50;2.77;;;;;;;-0.55;100.00;100361.04;3266903;90;26377;-76
2020/12/26 03:59:43;;;;;;;4.43;3.00;;;;;;;-0.56;100.00;100362.77;3267021;90;25842;-77
2020/12/26 04:04:44;;;;;;;3.72;3.22;;;;;;;-0.57;100.00;100368.90;3269903;90;25454;-77
2020/12/26 04:09:45;;;;;;;5.20;3.40;;;;;;;-0.58;100.00;100375.41;3267611;88;27784;-78
2020/12/26 04:14:46;;;;;;;4.83;2.93;;;;;;;-0.53;100.00;100379.81;3266346;90;26383;-78
2020/12/26 04:19:46;;;;;;;4.53;2.87;;;;;;;-0.54;100.00;100374.12;3266071;90;32960;-77
2020/12/26 04:24:47;;;;;;;2.50;2.30;;;;;;;-0.50;100.00;100377.64;3266088;90;26233;-78
2020/12/26 04:29:48;;;;;;;5.67;3.33;;;;;;;-0.37;100.00;100374.20;3266106;90;25830;-78
2020/12/26 04:34:49;;;;;;;5.03;3.83;;;;;;;-0.42;100.00;100380.32;3265972;90;25796;-79
2020/12/26 04:39:51;;;;;;;3.80;3.40;;;;;;;-0.28;100.00;100378.61;3265964;90;26285;-78
2020/12/26 04:44:53;;;;;;;5.37;4.67;;;;;;;-0.27;100.00;100380.81;3265906;90;25829;-78
2020/12/26 04:50:00;;;;;;;4.37;3.70;;;;;;;-0.18;100.00;100379.55;3266004;90;25860;-78
2020/12/26 04:55:05;;;;;;;5.20;4.00;;;;;;;-0.14;100.00;100374.74;3266068;90;32429;-78
2020/12/26 05:00:07;;;;;;;5.17;4.28;;;;;;;-0.07;100.00;100374.34;3266060;90;25789;-78
2020/12/26 05:05:09;;;;;;;4.57;4.17;;;;;;;-0.13;100.00;100378.22;3265783;90;32645;-70
2020/12/26 05:10:09;;;;;;;4.80;4.30;;;;;;;-0.19;100.00;100385.20;3265770;88;32624;-69
2020/12/26 05:15:11;;;;;;;5.10;4.60;;;;;;;-0.12;100.00;100387.42;3265768;90;25868;-70
2020/12/26 05:20:11;;;;;;;6.00;5.45;;;;;;;-0.10;100.00;100384.80;3265845;90;25790;-70
2020/12/26 05:25:12;;;;;;;6.63;4.97;;;;;;;-0.17;100.00;100383.47;3266071;90;25781;-78
2020/12/26 05:30:15;;;;;;;5.58;5.00;;;;;;;-0.11;100.00;100391.80;3266793;90;26250;-79
2020/12/26 05:35:16;;;;;;;6.37;5.00;;;;;;;-0.17;100.00;100387.81;3267129;90;25849;-78
2020/12/26 05:40:22;;;;;;;8.03;6.03;;;;;;;-0.14;100.00;100406.19;3266076;90;25839;-70
2020/12/26 05:45:23;;;;;;;;;;;;;;;0.01;100.00;100405.80;3268293;90;26302;-69
2020/12/26 05:50:24;;;;;;;6.10;5.37;;;;;;;0.01;100.00;100410.59;3272808;90;25784;-78
2020/12/26 05:55:31;;;;;;;5.62;3.72;;;;;;;0.00;100.00;100416.73;3274218;90;25749;-77
2020/12/26 06:00:41;;;;;;;5.50;4.43;;;;;;;-0.10;100.00;100414.48;3269160;86;32564;-79
2020/12/26 06:05:45;;;;;;;6.07;4.53;;;;;;;-0.08;100.00;100413.20;3266576;90;32607;-58
2020/12/26 06:11:01;;;;;;;5.03;3.43;;;;;;;0.00;100.00;100420.67;3265876;88;32479;-58
2020/12/26 06:16:21;;;;;;;5.00;4.50;;;;;;;-0.06;100.00;100427.17;3265882;90;32495;-58
2020/12/26 06:21:24;;;;;;;5.60;5.00;;;;;;;-0.05;100.00;100425.89;3265839;90;32543;-59
2020/12/26 06:26:29;;;;;;;4.53;4.03;;;;;;;0.04;100.00;100426.35;3265772;90;33083;-59
2020/12/26 06:31:30;;;;;;;6.28;4.42;;;;;;;-0.07;100.00;100430.69;3265935;89;25932;-59
2020/12/26 06:36:31;;;;;;;4.10;3.70;;;;;;;-0.03;100.00;100429.81;3265853;90;26360;-59
2020/12/26 06:41:32;;;;;;;4.53;4.13;;;;;;;-0.07;100.00;100437.24;3265725;90;26265;-59
2020/12/26 06:46:37;;;;;;;4.20;3.80;;;;;;;0.00;100.00;100446.87;3266016;90;25788;-58
2020/12/26 06:51:42;;;;;;;4.70;4.30;;;;;;;0.00;100.00;100457.36;3265905;90;25830;-59
2020/12/26 06:56:45;;;;;;;;;;;;;;;-0.01;100.00;100458.23;3267592;90;26322;-78
2020/12/26 07:01:46;;;;;;;4.63;4.20;;;;;;;0.04;100.00;100466.98;3266451;90;32501;-78
2020/12/26 07:06:54;;;;;;;4.87;4.40;;;;;;;-0.02;100.00;100474.82;3266321;90;26341;-77
2020/12/26 07:11:55;;;;;;;4.87;3.90;;;;;;;0.02;100.00;100476.57;3266507;88;32613;-79
2020/12/26 07:16:58;;;;;;;4.30;3.83;;;;;;;0.04;100.00;100468.70;3266301;90;26312;-78
2020/12/26 07:22:16;;;;;;;4.37;3.97;;;;;;;0.01;100.00;100479.19;3266886;90;33286;-78
2020/12/26 07:27:30;;;;;;;4.70;4.00;;;;;;;0.05;100.00;100491.02;3268448;90;32506;-77
2020/12/26 07:32:44;;;;;;;5.30;4.20;;;;;;;0.04;100.00;100494.50;3266527;90;32516;-77
2020/12/26 07:37:57;;;;;;;4.73;4.13;;;;;;;0.03;100.00;100500.61;3266331;90;33625;-78
2020/12/26 07:43:03;;;;;;;4.83;4.33;;;;;;;0.06;100.00;100499.74;3267201;90;32483;-75
2020/12/26 07:48:06;;;;;;;5.90;4.40;;;;;;;0.00;100.00;100507.16;3266201;89;32986;-78
2020/12/26 07:53:10;;;;;;;5.00;3.83;;;;;;;-0.10;100.00;100516.69;3266324;90;33145;-71
2020/12/26 07:58:13;;;;;;;5.90;5.30;;;;;;;-0.05;100.00;100513.69;3265951;90;32559;-71
2020/12/26 08:03:15;;;;;;;4.23;3.83;;;;;;;0.00;100.00;100511.09;3266075;90;32538;-70
2020/12/26 08:08:27;;;;;;;5.83;4.47;;;;;;;0.04;100.00;100518.09;3265952;88;25869;-70
2020/12/26 08:13:29;;;;;;;5.63;5.03;;;;;;;0.05;100.00;100522.89;3266539;90;32507;-77
2020/12/26 08:18:31;;;;;;;6.03;5.03;;;;;;;0.31;98.41;100530.88;3266762;90;32512;-77
2020/12/26 08:23:33;;;;;;;4.47;3.47;;;;;;;0.26;98.64;100537.41;3266364;90;32585;-78
2020/12/26 08:28:36;;;;;;;4.50;3.67;;;;;;;0.27;98.56;100544.86;3266550;90;32546;-78
2020/12/26 08:33:47;;;;;;;5.50;4.73;;;;;;;0.44;98.40;100556.29;3268095;90;32622;-78
2020/12/26 08:39:00;;;;;;;5.60;5.07;;;;;;;0.42;98.60;100552.77;3273770;86;32474;-78
2020/12/26 08:44:10;;;;;;;4.77;3.90;;;;;;;0.36;100.00;100565.86;3273407;90;32333;-76
2020/12/26 08:49:12;;;;;;;5.50;4.00;;;;;;;0.31;100.00;100565.87;3273376;90;32572;-76
2020/12/26 08:54:22;;;;;;;4.43;4.03;;;;;;;0.30;100.00;100569.36;3268798;90;32579;-78
2020/12/26 08:59:28;;;;;;;6.00;4.27;;;;;;;0.31;100.00;100570.22;3273148;89;32583;-71
2020/12/26 09:04:29;;;;;;;5.83;4.60;;;;;;;0.31;100.00;100580.30;3217971;92;32609;-70
2020/12/26 09:09:30;;;;;;;5.63;5.03;;;;;;;0.22;100.00;100586.78;3230259;90;25905;-78
2020/12/26 09:14:32;;;;;;;5.17;4.12;;;;;;;0.29;100.00;100592.92;3235595;88;397961;-76
2020/12/26 09:19:44;;;;;;;4.60;4.20;;;;;;;0.25;100.00;100600.34;3269043;90;25743;-79
2020/12/26 09:24:45;;;;;;;6.87;5.57;;;;;;;0.21;100.00;100603.83;3266894;90;32570;-78
2020/12/26 09:29:49;;;;;;;5.30;4.43;;;;;;;0.32;100.00;100603.45;3266113;90;26703;-79
2020/12/26 09:34:49;;;;;;;5.87;5.30;;;;;;;0.35;100.00;100613.97;3266703;90;32662;-80
2020/12/26 09:39:50;;;;;;;5.87;4.80;;;;;;;0.34;100.00;100624.01;3266141;90;25850;-72
2020/12/26 09:44:51;;;;;;;5.27;4.40;;;;;;;0.34;100.00;100624.01;3265556;90;25909;-71
2020/12/26 09:49:52;;;;;;;5.20;3.93;;;;;;;0.43;100.00;100624.03;3266205;90;25874;-79
2020/12/26 09:54:53;;;;;;;5.63;4.80;;;;;;;0.44;100.00;100616.62;3265895;90;25885;-79
2020/12/26 09:59:54;;;;;;;5.17;4.67;;;;;;;0.50;100.00;100621.44;3265677;90;25961;-78
2020/12/26 10:04:55;;;;;;;6.20;5.60;;;;;;;0.51;100.00;100623.20;3266327;90;26113;-79
2020/12/26 10:09:56;;;;;;;7.33;6.20;;;;;;;0.44;100.00;100623.63;3274218;89;25861;-79
2020/12/26 10:14:57;;;;;;;7.20;5.83;;;;;;;0.52;100.00;100635.45;3296957;89;25958;-78
2020/12/26 10:19:59;;;;;;;7.13;6.43;;;;;;;0.60;99.51;100624.56;3290929;89;26879;-78
2020/12/26 10:25:00;;;;;;;7.97;7.17;;;;;;;0.63;100.00;100621.97;3260029;89;26645;-78
2020/12/26 10:30:02;;;;;;;7.37;5.73;;;;;;;0.76;99.96;100625.50;3288091;89;26006;-78
2020/12/26 10:35:03;;;;;;;7.30;5.50;;;;;;;0.82;100.00;100627.28;3299943;89;25921;-78
2020/12/26 10:40:04;;;;;;;7.27;5.37;;;;;;;0.67;100.00;100630.28;3298977;89;26008;-78
2020/12/26 10:45:05;;;;;;;7.53;6.30;;;;;;;0.72;100.00;100625.92;3301951;89;25877;-75
2020/12/26 10:50:06;;;;;;;3.87;3.40;;;;;;;0.80;99.19;100625.97;3298466;89;27209;-74
2020/12/26 10:55:09;;;;;;;6.13;4.57;;;;;;;0.69;98.91;100630.28;3300963;89;26152;-74
2020/12/26 11:00:11;;;;;;;5.57;4.83;;;;;;;0.72;98.15;100628.55;3307994;89;27707;-74
2020/12/26 11:05:12;;;;;;;6.13;5.23;;;;;;;0.69;97.93;100636.42;3296956;89;27620;-74
2020/12/26 11:10:13;;;;;;;5.10;3.87;;;;;;;0.76;97.74;100630.33;3307736;88;25825;-76
2020/12/26 11:15:14;;;;;;;9.23;5.90;;;;;;;0.76;97.22;100632.95;3299574;89;25806;-70
2020/12/26 11:20:15;;;;;;;5.93;4.87;;;;;;;0.75;97.32;100629.89;3300657;89;25829;-75
2020/12/26 11:25:17;;;;;;;6.20;5.27;;;;;;;0.82;97.56;100636.47;3303550;89;26194;-73
2020/12/26 11:30:18;;;;;;;4.70;4.27;;;;;;;0.80;98.32;100639.09;3290446;89;25912;-74
2020/12/26 11:35:19;;;;;;;6.00;5.33;;;;;;;0.88;98.48;100641.28;3299445;89;26207;-73
2020/12/26 11:40:20;;;;;;;7.07;5.10;;;;;;;0.90;97.05;100641.31;3281933;89;26287;-73
2020/12/26 11:45:21;;;;;;;6.03;5.43;;;;;;;0.88;98.03;100641.28;3294230;89;26104;-74
2020/12/26 11:50:22;;;;;;;6.50;3.97;;;;;;;0.87;97.01;100625.55;3306386;89;33359;-74
2020/12/26 11:55:23;;;;;;;5.83;5.20;;;;;;;0.87;96.55;100643.50;3292002;89;33239;-75
2020/12/26 12:00:25;;;;;;;6.53;4.47;;;;;;;0.88;96.25;100626.84;3300087;89;33199;-73
2020/12/26 12:05:26;;;;;;;7.27;5.70;;;;;;;1.09;95.99;100637.01;3289931;89;33296;-77
2020/12/26 12:10:27;;;;;;;6.80;5.87;;;;;;;1.08;96.13;100634.80;3276848;86;77638;-73
2020/12/26 12:15:28;;;;;;;6.43;5.50;;;;;;;1.18;94.79;100637.46;3282732;90;33283;-73
2020/12/26 12:20:31;;;;;;;9.80;6.47;;;;;;;1.18;95.12;100640.09;3259503;86;183303;-70
2020/12/26 12:28:54;;;;;;;7.70;6.50;;;;;;;1.33;93.58;100658.52;2125557;80;101345;-76
2020/12/26 12:31:54;;;;;;;8.05;5.87;;;;;;;1.34;92.82;100651.50;2071860;83;25778;-71
2020/12/26 12:34:55;;;;;;;7.70;5.90;;;;;;;1.41;92.97;100659.38;2075106;85;26792;-75
2020/12/26 12:37:56;;;;;;;9.23;5.30;;;;;;;1.37;92.62;100659.40;2063591;85;32575;-76
2020/12/26 12:40:57;;;;;;;6.37;5.77;;;;;;;1.27;92.25;100652.80;2070135;85;34943;-73
2020/12/26 12:43:58;;;;;;;8.10;5.97;;;;;;;1.35;92.42;100660.69;2085725;84;31040;-75
2020/12/26 12:46:59;;;;;;;6.07;5.10;;;;;;;1.52;91.84;100662.48;2074351;85;32754;-72
2020/12/26 12:50:00;;;;;;;6.57;5.50;;;;;;;1.51;92.38;100663.34;2068779;85;25788;-74
2020/12/26 12:53:01;;;;;;;6.97;5.90;;;;;;;1.57;92.34;100652.84;2075004;85;28380;-74
2020/12/26 12:56:02;;;;;;;6.53;5.83;;;;;;;1.59;92.42;100658.98;2075031;85;35153;-75
2020/12/26 12:59:04;;;;;;;7.28;5.45;;;;;;;1.67;91.01;100654.62;2085072;83;26950;-74
2020/12/26 13:02:05;;;;;;;5.92;5.10;;;;;;;1.45;92.45;100663.34;2089751;84;25937;-74
2020/12/26 13:05:06;;;;;;;6.97;5.25;;;;;;;1.41;93.34;100662.01;2069257;85;26012;-75
2020/12/26 13:08:07;;;;;;;7.57;6.23;;;;;;;1.64;91.80;100667.73;2078806;85;32507;-74
2020/12/26 13:11:08;;;;;;;5.93;4.70;;;;;;;2.07;89.96;100671.70;2080127;85;35586;-74
2020/12/26 13:14:08;;;;;;;5.73;5.13;;;;;;;1.72;90.68;100666.00;2076167;85;31446;-74
2020/12/26 13:17:10;;;;;;;5.60;4.83;;;;;;;1.38;92.65;100668.59;2063492;85;33624;-74
2020/12/26 13:20:11;;;;;;;8.23;6.50;;;;;;;1.50;91.42;100682.61;2068874;85;25852;-73
2020/12/26 13:23:11;;;;;;;9.73;6.30;;;;;;;1.36;91.86;100680.83;2074770;85;33644;-73
2020/12/26 13:26:13;;;;;;;7.53;5.90;;;;;;;1.25;92.23;100690.45;2081707;85;35504;-75
2020/12/26 13:29:14;;;;;;;7.58;5.87;;;;;;;1.16;93.30;100693.03;2085570;85;27507;-76
2020/12/26 13:32:15;;;;;;;9.08;5.78;;;;;;;1.13;92.90;100691.72;2069339;85;25852;-74
2020/12/26 13:35:16;;;;;;;8.47;6.73;;;;;;;1.13;94.29;100696.98;2078521;85;25783;-74
2020/12/26 13:38:17;;;;;;;6.30;5.50;;;;;;;1.10;94.46;100693.88;2081006;82;32431;-74
2020/12/26 13:41:20;;;;;;;7.07;5.87;;;;;;;1.02;94.68;100696.48;2040185;85;34819;-77
2020/12/26 13:44:21;;;;;;;6.10;4.00;;;;;;;0.95;95.41;100697.33;2042360;86;26043;-74
2020/12/26 13:47:22;;;;;;;6.60;5.87;;;;;;;0.95;95.38;100702.58;2064653;85;25975;-74
2020/12/26 13:50:23;;;;;;;6.23;5.00;;;;;;;0.87;96.33;100701.66;2054386;85;26357;-74
2020/12/26 13:53:24;;;;;;;6.10;5.47;;;;;;;0.90;96.58;100703.00;2051789;85;32750;-75
2020/12/26 13:56:25;;;;;;;7.42;5.37;;;;;;;0.83;97.82;100708.64;2068091;85;25900;-76
2020/12/26 13:59:26;;;;;;;8.27;6.07;;;;;;;0.73;99.17;100715.59;2059287;85;31142;-75
2020/12/26 14:02:27;;;;;;;6.57;5.00;;;;;;;0.88;99.11;100727.05;2059198;85;32622;-77
2020/12/26 14:05:28;;;;;;;9.00;6.50;;;;;;;0.78;98.83;100726.98;2064200;85;26282;-75
2020/12/26 14:08:29;;;;;;;11.63;6.93;;;;;;;0.86;98.78;100728.77;2061537;85;28107;-76
2020/12/26 14:11:30;;;;;;;10.60;8.27;;;;;;;0.82;99.14;100734.89;2052657;85;34895;-75
2020/12/26 14:14:31;;;;;;;7.53;6.20;;;;;;;0.78;99.20;100737.48;2071730;85;31092;-74
2020/12/26 14:17:32;;;;;;;5.77;4.87;;;;;;;0.81;99.15;100739.69;2063929;84;32980;-74
2020/12/26 14:20:33;;;;;;;9.50;6.50;;;;;;;0.88;98.83;100734.92;2070751;85;25825;-74
2020/12/26 14:23:34;;;;;;;7.80;6.87;;;;;;;0.80;99.37;100728.33;2067675;84;32683;-74
2020/12/26 14:26:35;;;;;;;10.07;6.90;;;;;;;0.73;100.00;100741.84;2092196;84;25878;-73
2020/12/26 14:29:36;;;;;;;6.17;5.53;;;;;;;0.74;100.00;100740.97;2068961;84;31101;-74
2020/12/26 14:32:37;;;;;;;7.97;6.33;;;;;;;0.75;100.00;100753.64;2057066;84;32555;-75
2020/12/26 14:35:38;;;;;;;6.83;5.90;;;;;;;0.75;100.00;100753.64;2066067;85;26277;-74
2020/12/26 14:38:39;;;;;;;7.70;5.40;;;;;;;0.73;100.00;100760.20;2054269;84;27550;-74
2020/12/26 14:41:41;;;;;;;8.07;6.13;;;;;;;0.72;100.00;100760.20;2067345;84;26515;-75
2020/12/26 14:44:42;;;;;;;8.23;6.28;;;;;;;0.72;100.00;100754.95;2071353;84;26423;-74
2020/12/26 14:47:43;;;;;;;8.77;6.77;;;;;;;0.72;100.00;100766.31;2074667;84;25908;-76
2020/12/26 14:50:44;;;;;;;10.87;7.00;;;;;;;0.70;100.00;100770.70;2079669;84;25888;-75
2020/12/26 14:53:50;;;;;;;7.83;5.70;;;;;;;0.70;100.00;100770.70;2069191;84;27540;-74
2020/12/26 14:56:53;;;;;;;10.57;7.70;;;;;;;0.66;98.51;100785.09;2055014;85;25886;-76
2020/12/26 14:59:54;;;;;;;10.87;6.40;;;;;;;0.72;98.28;100775.95;2068694;84;25862;-75
2020/12/26 15:02:55;;;;;;;5.77;4.97;;;;;;;0.69;97.05;100779.44;2062835;85;32573;-78
2020/12/26 15:05:56;;;;;;;6.37;5.47;;;;;;;0.71;96.62;100779.44;2050425;85;25952;-77
2020/12/26 15:08:57;;;;;;;7.00;5.83;;;;;;;0.66;97.37;100782.47;2066353;85;33086;-77
2020/12/26 15:11:58;;;;;;;6.93;5.93;;;;;;;0.71;97.51;100780.75;2054003;85;35810;-75
2020/12/26 15:14:59;;;;;;;8.30;6.10;;;;;;;0.61;97.95;100779.81;2069375;85;31030;-75
2020/12/26 15:18:00;;;;;;;8.37;6.20;;;;;;;0.66;98.27;100773.29;2059455;85;25890;-76
2020/12/26 15:21:01;;;;;;;7.40;5.83;;;;;;;0.71;97.86;100772.87;2071829;85;25874;-75
2020/12/26 15:24:02;;;;;;;10.50;7.40;;;;;;;0.51;98.88;100768.79;2066394;85;27468;-76
2020/12/26 15:27:03;;;;;;;9.67;7.67;;;;;;;0.49;98.76;100771.41;2051922;84;34943;-73
2020/12/26 15:30:04;;;;;;;8.47;6.43;;;;;;;0.52;98.21;100770.55;2071412;85;31178;-76
2020/12/26 15:33:05;;;;;;;8.13;6.33;;;;;;;0.51;97.62;100774.94;2066878;85;32581;-74
2020/12/26 15:36:06;;;;;;;16.07;11.17;;;;;;;0.42;98.34;100777.03;2062183;85;25836;-76
2020/12/26 15:39:07;;;;;;;12.40;8.97;;;;;;;0.49;98.76;100778.42;2065812;85;27907;-75
2020/12/26 15:42:08;;;;;;;13.47;9.07;;;;;;;0.56;98.98;100781.53;2075212;85;25368;-75
2020/12/26 15:45:09;;;;;;;13.57;8.40;;;;;;;0.57;98.96;100781.95;2060663;85;31558;-76
2020/12/26 15:48:10;;;;;;;12.83;8.53;;;;;;;0.65;99.14;100787.27;2055401;85;25810;-76
2020/12/26 15:51:11;;;;;;;10.27;7.90;;;;;;;0.54;99.17;100779.32;2064155;85;26027;-75
2020/12/26 15:54:12;;;;;;;10.07;8.23;;;;;;;0.52;99.90;100787.61;2054719;85;27512;-76
2020/12/26 15:57:13;;;;;;;10.70;7.60;;;;;;;0.50;99.95;100788.91;2066203;85;25830;-77
2020/12/26 16:00:14;;;;;;;10.70;7.47;;;;;;;0.53;99.47;100788.05;2062145;85;30942;-77
2020/12/26 16:03:15;;;;;;;10.50;7.87;;;;;;;0.55;99.15;100778.45;2070316;85;25812;-76
2020/12/26 16:06:19;;;;;;;7.93;6.63;;;;;;;0.56;99.09;100784.16;2051662;85;25724;-77
2020/12/26 16:09:20;;;;;;;9.60;7.47;;;;;;;0.54;98.24;100784.57;2060952;85;28317;-75
2020/12/26 16:12:21;;;;;;;7.67;6.27;;;;;;;0.52;98.54;100777.11;2071489;85;35358;-75
2020/12/26 16:15:22;;;;;;;9.40;6.63;;;;;;;0.54;97.97;100783.25;2071831;85;30939;-75
2020/12/26 16:18:23;;;;;;;9.77;7.63;;;;;;;0.53;98.07;100782.81;2072482;84;25740;-75
2020/12/26 16:21:26;;;;;;;6.80;5.07;;;;;;;0.54;98.10;100777.56;2062166;85;25849;-77
2020/12/26 16:24:27;;;;;;;10.63;7.40;;;;;;;0.49;98.09;100784.98;2056152;85;27543;-75
2020/12/26 16:27:28;;;;;;;10.90;8.03;;;;;;;0.52;98.20;100778.42;2062256;85;25894;-75
2020/12/26 16:30:29;;;;;;;8.33;6.93;;;;;;;0.54;97.61;100776.25;2066841;85;31070;-76
2020/12/26 16:33:30;;;;;;;9.60;7.93;;;;;;;0.46;97.54;100780.14;2051884;85;25706;-75
2020/12/26 16:36:32;;;;;;;10.43;6.87;;;;;;;0.50;97.89;100782.77;2056695;85;25775;-75
2020/12/26 16:39:33;;;;;;;11.90;8.63;;;;;;;0.49;96.92;100784.98;2056445;85;27473;-74
2020/12/26 16:42:34;;;;;;;7.03;5.93;;;;;;;0.54;96.25;100783.25;2071323;85;25838;-74
2020/12/26 16:45:35;;;;;;;11.17;7.17;;;;;;;0.53;96.22;100785.43;2065939;85;25850;-75
2020/12/26 16:48:36;;;;;;;9.23;7.27;;;;;;;0.46;96.72;100779.24;2060765;85;25767;-73
2020/12/26 16:51:37;;;;;;;10.47;6.93;;;;;;;0.53;96.25;100782.81;2061471;85;25994;-74
2020/12/26 16:54:38;;;;;;;7.93;6.03;;;;;;;0.49;96.21;100783.66;2067766;85;28396;-75
2020/12/26 16:57:39;;;;;;;11.10;7.90;;;;;;;0.46;95.70;100787.11;2053933;85;34691;-75
2020/12/26 17:00:40;;;;;;;11.13;8.33;;;;;;;0.56;96.08;100781.09;2075438;85;25424;-74
2020/12/26 17:03:43;;;;;;;9.60;7.27;;;;;;;0.54;95.45;100786.74;2070341;85;33439;-75
2020/12/26 17:06:44;;;;;;;9.55;7.05;;;;;;;0.49;95.68;100783.66;2060705;85;25828;-75
2020/12/26 17:09:44;;;;;;;10.07;6.37;;;;;;;0.54;95.67;100780.19;2066345;85;32776;-75
2020/12/26 17:12:47;;;;;;;12.00;7.43;;;;;;;0.54;95.81;100788.50;2073658;84;35035;-76
2020/12/26 17:15:48;;;;;;;9.93;7.27;;;;;;;0.50;95.58;100789.33;2082390;84;26011;-77
2020/12/26 17:18:49;;;;;;;10.63;7.43;;;;;;;0.50;95.97;100795.89;2058444;84;32602;-76
2020/12/26 17:21:50;;;;;;;13.87;7.37;;;;;;;0.50;96.35;100788.02;2066323;85;25856;-77
2020/12/26 17:24:51;;;;;;;10.77;8.20;;;;;;;0.49;96.31;100788.47;2076069;85;33019;-77
2020/12/26 17:27:51;;;;;;;10.87;8.33;;;;;;;0.47;96.77;100777.97;2061922;84;34941;-77
2020/12/26 17:30:53;;;;;;;11.87;7.93;;;;;;;0.45;96.81;100769.20;2079693;84;31531;-76
2020/12/26 17:33:56;;;;;;;12.30;8.37;;;;;;;0.49;97.67;100777.11;2060955;85;25783;-78
2020/12/26 17:36:57;;;;;;;11.60;8.17;;;;;;;0.55;97.45;100776.70;2072846;85;26296;-76
2020/12/26 17:39:58;;;;;;;12.53;8.97;;;;;;;0.59;97.30;100786.37;2067569;85;32598;-75
2020/12/26 17:42:59;;;;;;;10.77;8.47;;;;;;;0.59;97.63;100788.09;2076063;85;34864;-76
2020/12/26 17:46:00;;;;;;;12.87;8.27;;;;;;;0.63;97.65;100791.20;2061032;85;31072;-76
2020/12/26 17:49:03;;;;;;;9.73;7.43;;;;;;;0.73;96.96;100798.26;2061367;85;33338;-77
2020/12/26 17:52:04;;;;;;;12.40;9.60;;;;;;;0.73;96.81;100796.95;2056234;85;27322;-72
2020/12/26 17:55:08;;;;;;;11.77;9.60;;;;;;;0.76;96.22;100798.30;2056801;85;33078;-71
2020/12/26 17:58:08;;;;;;;11.90;9.03;;;;;;;0.65;97.45;100805.19;2055692;85;25807;-71
2020/12/26 18:01:10;;;;;;;11.23;8.57;;;;;;;0.69;96.81;100808.30;2072484;84;31439;-76
2020/12/26 18:04:11;;;;;;;11.60;8.83;;;;;;;0.72;96.65;100814.00;2068737;84;25772;-76
2020/12/26 18:07:12;;;;;;;10.43;8.70;;;;;;;0.76;96.46;100815.77;2068251;84;27408;-76
2020/12/26 18:10:14;;;;;;;13.00;8.80;;;;;;;0.67;96.83;100807.41;2073487;85;32643;-76
2020/12/26 18:13:16;;;;;;;9.13;7.00;;;;;;;0.61;97.41;100808.23;2058180;85;25797;-77
2020/12/26 18:16:17;;;;;;;8.63;6.30;;;;;;;0.62;96.81;100814.38;2067522;85;25939;-77
2020/12/26 18:19:18;;;;;;;10.63;7.80;;;;;;;0.66;96.26;100816.58;2067671;85;25932;-77
2020/12/26 18:22:21;;;;;;;9.73;7.50;;;;;;;0.54;97.03;100816.05;2071422;85;26236;-76
2020/12/26 18:25:22;;;;;;;10.57;7.90;;;;;;;0.57;96.01;100818.68;2074414;85;27671;-77
2020/12/26 18:28:23;;;;;;;9.63;7.73;;;;;;;0.53;95.61;100823.02;2059522;84;26358;-77
2020/12/26 18:31:24;;;;;;;7.40;6.63;;;;;;;0.46;96.42;100824.73;2041666;86;26311;-76
2020/12/26 18:34:25;;;;;;;7.50;5.57;;;;;;;0.39;95.85;100824.23;2040437;86;25865;-78
2020/12/26 18:37:26;;;;;;;10.93;7.43;;;;;;;0.29;96.52;100832.46;2043781;86;25809;-77
2020/12/26 18:40:27;;;;;;;12.33;8.60;;;;;;;0.33;96.68;100832.05;2042791;86;32457;-76
2020/12/26 18:43:28;;;;;;;11.33;8.20;;;;;;;0.33;96.77;100833.37;2037415;86;25750;-77
2020/12/26 18:46:29;;;;;;;11.23;8.60;;;;;;;0.33;96.69;100833.37;2039131;86;30927;-76
2020/12/26 18:49:30;;;;;;;13.47;8.00;;;;;;;0.34;95.87;100832.92;2044987;86;32956;-77
2020/12/26 18:52:33;;;;;;;11.73;7.87;;;;;;;0.34;95.76;100839.47;2046448;86;25861;-75
2020/12/26 18:55:34;;;;;;;10.83;8.30;;;;;;;0.33;95.70;100837.71;2044988;86;29774;-75
2020/12/26 18:58:35;;;;;;;10.43;7.10;;;;;;;0.29;95.33;100836.39;2044505;86;35300;-75
2020/12/26 19:01:35;;;;;;;12.90;8.40;;;;;;;0.26;95.67;100838.97;2038760;86;30962;-76
2020/12/26 19:04:36;;;;;;;13.73;8.33;;;;;;;0.28;95.23;100833.77;2038628;86;32938;-75
2020/12/26 19:07:37;;;;;;;10.07;8.03;;;;;;;0.22;95.30;100833.67;2038240;86;25899;-76